Time;durP1;ratioP1;P1;durP2;ratioP2;P2;SDS_P1;SDS_P2;PMS_P1;PMS_P2;Temp;Humidity;BMP_temperature;BMP_pressure;BME280_temperature;BME280_humidity;BME280_pressure;Samples;Min_cycle;Max_cycle;Signal;HPM_P1;HPM_P2
2022/06/13 00:01:31;;;;;;;22.87;8.53;;;;;;;;;;5033110;28;20522;-72
2022/06/13 00:03:56;;;;;;;23.30;8.73;;;;;;;;;;5041149;28;20028;-71
2022/06/13 00:06:22;;;;;;;21.63;9.07;;;;;;;;;;5030446;28;20152;-71
2022/06/13 00:08:47;;;;;;;24.90;9.20;;;;;;;;;;5047673;28;20025;-71
2022/06/13 00:11:16;;;;;;;21.43;8.53;;;;;;;;;;5046072;28;20044;-71
2022/06/13 00:13:42;;;;;;;23.97;8.80;;;;;;;;;;5045747;28;20559;-71
2022/06/13 00:16:08;;;;;;;27.00;9.87;;;;;;;;;;5036343;28;20021;-71
2022/06/13 00:18:34;;;;;;;30.13;9.97;;;;;;;;;;5039290;28;20033;-71
2022/06/13 00:20:59;;;;;;;24.00;9.53;;;;;;;;;;5041393;28;20048;-71
2022/06/13 00:23:24;;;;;;;23.33;9.00;;;;;;;;;;5044026;28;20485;-71
2022/06/13 00:25:49;;;;;;;24.20;9.13;;;;;;;;;;5050312;28;20084;-71
2022/06/13 00:28:14;;;;;;;27.67;9.40;;;;;;;;;;5038993;28;20024;-71
2022/06/13 00:30:40;;;;;;;29.67;10.47;;;;;;;;;;5046756;28;20494;-71
2022/06/13 00:33:05;;;;;;;26.50;9.80;;;;;;;;;;5045386;28;20088;-71
2022/06/13 00:35:30;;;;;;;27.53;9.70;;;;;;;;;;5045454;28;20542;-71
2022/06/13 00:37:55;;;;;;;32.00;10.77;;;;;;;;;;5040714;28;20048;-71
2022/06/13 00:40:22;;;;;;;33.43;10.33;;;;;;;;;;5039933;28;20492;-72
2022/06/13 00:42:47;;;;;;;27.13;10.57;;;;;;;;;;5037080;28;20017;-71
2022/06/13 00:45:26;;;;;;;25.43;9.63;;;;;;;;;;5032614;28;20027;-71
2022/06/13 00:47:53;;;;;;;28.53;9.50;;;;;;;;;;5046434;28;20023;-72
2022/06/13 00:50:21;;;;;;;23.33;9.33;;;;;;;;;;5039795;28;20033;-72
2022/06/13 00:53:02;;;;;;;26.87;9.93;;;;;;;;;;5045104;28;20432;-72
2022/06/13 00:55:30;;;;;;;36.13;11.03;;;;;;;;;;5046302;28;20710;-72
2022/06/13 00:57:56;;;;;;;23.23;9.53;;;;;;;;;;5043906;28;20112;-71
2022/06/13 01:00:24;;;;;;;30.97;12.40;;;;;;;;;;5054515;28;20067;-70
2022/06/13 01:02:50;;;;;;;26.33;10.57;;;;;;;;;;5053148;28;20087;-69
2022/06/13 01:05:18;;;;;;;29.07;11.93;;;;;;;;;;5046801;28;20033;-69
2022/06/13 01:07:43;;;;;;;29.60;10.13;;;;;;;;;;5040761;28;20045;-69
2022/06/13 01:12:54;;;;;;;23.93;10.70;;;;;;;;;;5050648;28;20091;-69
2022/06/13 01:15:33;;;;;;;26.37;10.87;;;;;;;;;;5051819;28;20029;-69
2022/06/13 01:18:03;;;;;;;27.27;10.00;;;;;;;;;;5033936;28;20485;-69
2022/06/13 01:20:38;;;;;;;27.10;9.87;;;;;;;;;;5066130;28;20479;-69
2022/06/13 01:23:04;;;;;;;25.97;11.00;;;;;;;;;;5052378;28;20032;-69
2022/06/13 01:25:29;;;;;;;26.10;10.10;;;;;;;;;;5052675;28;20025;-69
2022/06/13 01:28:00;;;;;;;25.83;10.87;;;;;;;;;;5046248;28;20550;-69
2022/06/13 01:30:31;;;;;;;31.98;10.82;;;;;;;;;;5053877;28;20376;-69
2022/06/13 01:32:56;;;;;;;25.45;10.05;;;;;;;;;;5052462;28;20021;-69
2022/06/13 01:35:21;;;;;;;27.00;10.20;;;;;;;;;;5053481;28;20036;-70
2022/06/13 01:37:56;;;;;;;27.80;10.23;;;;;;;;;;5050929;28;20049;-69
2022/06/13 01:40:24;;;;;;;29.00;10.70;;;;;;;;;;5052765;28;20025;-69
2022/06/13 01:43:02;;;;;;;28.40;9.53;;;;;;;;;;5051898;28;20033;-69
2022/06/13 01:45:32;;;;;;;28.43;9.70;;;;;;;;;;5045505;28;20036;-69
2022/06/13 01:48:06;;;;;;;28.40;10.20;;;;;;;;;;5052291;28;20021;-69
2022/06/13 01:50:37;;;;;;;25.60;10.23;;;;;;;;;;5052326;28;20459;-69
2022/06/13 01:53:11;;;;;;;26.85;10.30;;;;;;;;;;5051239;28;20024;-69
2022/06/13 01:55:45;;;;;;;28.63;10.73;;;;;;;;;;5053446;28;20024;-68
2022/06/13 01:58:13;;;;;;;27.00;10.47;;;;;;;;;;5033969;28;20036;-68
2022/06/13 02:00:40;;;;;;;24.30;10.57;;;;;;;;;;5052063;28;20090;-68
2022/06/13 02:03:14;;;;;;;29.53;10.87;;;;;;;;;;5051366;28;20397;-68
2022/06/13 02:05:51;;;;;;;25.63;9.53;;;;;;;;;;5040787;28;20074;-68
2022/06/13 02:08:19;;;;;;;20.47;9.43;;;;;;;;;;5051006;28;20032;-68
2022/06/13 02:10:48;;;;;;;26.40;9.67;;;;;;;;;;5045227;28;20036;-68
2022/06/13 02:13:17;;;;;;;24.70;9.27;;;;;;;;;;5051511;28;20032;-68
2022/06/13 02:15:45;;;;;;;24.23;9.60;;;;;;;;;;5051123;28;20032;-68
2022/06/13 02:18:13;;;;;;;25.80;10.20;;;;;;;;;;5051901;28;20047;-68
2022/06/13 02:20:39;;;;;;;22.67;9.80;;;;;;;;;;5043824;28;20041;-68
2022/06/13 02:23:12;;;;;;;22.07;9.87;;;;;;;;;;5051499;28;20584;-71
2022/06/13 02:25:47;;;;;;;25.93;9.57;;;;;;;;;;5050217;28;20024;-71
2022/06/13 02:28:12;;;;;;;28.40;9.80;;;;;;;;;;5051602;28;20021;-71
2022/06/13 02:30:40;;;;;;;23.93;9.97;;;;;;;;;;5052747;28;20028;-71
2022/06/13 02:33:26;;;;;;;23.47;9.13;;;;;;;;;;5061181;28;20111;-71
2022/06/13 02:36:01;;;;;;;27.83;9.97;;;;;;;;;;5036923;28;20350;-71
2022/06/13 02:38:35;;;;;;;24.73;9.27;;;;;;;;;;5045369;28;20382;-71
2022/06/13 02:41:04;;;;;;;24.47;9.27;;;;;;;;;;5042788;28;20503;-71
2022/06/13 02:43:32;;;;;;;26.97;10.70;;;;;;;;;;5047482;28;20024;-71
2022/06/13 02:46:04;;;;;;;26.03;9.67;;;;;;;;;;5051738;28;20021;-71
2022/06/13 02:48:35;;;;;;;27.48;9.18;;;;;;;;;;5050705;28;20440;-71
2022/06/13 02:51:23;;;;;;;23.83;8.50;;;;;;;;;;5050104;28;20033;-71
2022/06/13 02:53:52;;;;;;;24.40;8.80;;;;;;;;;;5048531;28;21032;-71
2022/06/13 02:56:18;;;;;;;19.20;8.60;;;;;;;;;;5047069;28;20021;-71
2022/06/13 02:58:43;;;;;;;26.37;8.83;;;;;;;;;;5049568;28;20029;-71
2022/06/13 03:01:14;;;;;;;21.80;8.43;;;;;;;;;;5050924;28;20412;-71
2022/06/13 03:03:43;;;;;;;22.87;8.27;;;;;;;;;;5049475;28;20568;-71
2022/06/13 03:06:19;;;;;;;17.10;8.03;;;;;;;;;;5049875;28;20302;-71
2022/06/13 03:08:54;;;;;;;18.47;7.70;;;;;;;;;;5046591;28;20047;-71
2022/06/13 03:11:37;;;;;;;19.60;7.57;;;;;;;;;;5047635;28;20067;-71
2022/06/13 03:14:03;;;;;;;32.30;8.50;;;;;;;;;;5052032;28;20595;-71
2022/06/13 03:16:35;;;;;;;19.77;7.30;;;;;;;;;;5050278;28;20089;-71
2022/06/13 03:19:21;;;;;;;18.63;7.87;;;;;;;;;;5049340;28;20117;-71
2022/06/13 03:21:56;;;;;;;15.37;7.20;;;;;;;;;;5039662;28;20028;-71
2022/06/13 03:24:28;;;;;;;19.70;7.97;;;;;;;;;;5048023;28;20524;-71
2022/06/13 03:27:06;;;;;;;16.97;7.30;;;;;;;;;;5048058;28;20017;-71
2022/06/13 03:29:35;;;;;;;19.67;7.70;;;;;;;;;;5051675;28;20017;-71
2022/06/13 03:32:10;;;;;;;17.53;7.00;;;;;;;;;;5048960;28;20025;-71
2022/06/13 03:34:38;;;;;;;19.33;7.00;;;;;;;;;;5050630;28;20086;-71
2022/06/13 03:37:04;;;;;;;17.80;7.10;;;;;;;;;;5048628;28;20072;-71
2022/06/13 03:39:49;;;;;;;19.77;7.00;;;;;;;;;;5043411;28;20473;-71
2022/06/13 03:42:17;;;;;;;20.07;6.70;;;;;;;;;;5049779;28;20116;-71
2022/06/13 03:44:42;;;;;;;18.27;6.83;;;;;;;;;;5049690;28;20027;-71
2022/06/13 03:47:10;;;;;;;15.87;6.67;;;;;;;;;;5050157;28;20028;-71
2022/06/13 03:49:42;;;;;;;15.00;6.90;;;;;;;;;;5049982;28;20028;-71
2022/06/13 03:52:09;;;;;;;16.53;7.13;;;;;;;;;;5049408;28;20163;-71
2022/06/13 03:54:46;;;;;;;18.33;6.93;;;;;;;;;;5049692;28;20162;-71
2022/06/13 03:57:11;;;;;;;14.07;6.87;;;;;;;;;;5049949;28;20029;-71
2022/06/13 03:59:37;;;;;;;17.50;6.87;;;;;;;;;;5050339;28;20035;-71
2022/06/13 04:02:04;;;;;;;15.20;7.03;;;;;;;;;;5041877;28;20033;-70
2022/06/13 04:04:35;;;;;;;19.53;7.63;;;;;;;;;;5042761;28;20103;-72
2022/06/13 04:07:01;;;;;;;17.10;7.23;;;;;;;;;;5047054;28;20059;-71
2022/06/13 04:09:52;;;;;;;17.70;6.60;;;;;;;;;;5049779;28;20084;-71
2022/06/13 04:12:27;;;;;;;13.98;6.50;;;;;;;;;;5006472;28;20112;-71
2022/06/13 04:14:53;;;;;;;14.20;6.70;;;;;;;;;;5049106;28;20037;-71
2022/06/13 04:17:30;;;;;;;16.47;6.87;;;;;;;;;;5049227;28;20113;-71
2022/06/13 04:20:01;;;;;;;17.77;6.83;;;;;;;;;;5050310;28;20051;-71
2022/06/13 04:22:39;;;;;;;17.08;6.13;;;;;;;;;;5050022;28;20142;-71
2022/06/13 04:25:10;;;;;;;17.57;6.97;;;;;;;;;;5048768;28;20028;-71
2022/06/13 04:27:50;;;;;;;20.70;6.30;;;;;;;;;;5048503;28;20463;-71
2022/06/13 04:30:18;;;;;;;12.63;5.93;;;;;;;;;;5050018;28;20424;-71
2022/06/13 04:32:56;;;;;;;14.40;5.63;;;;;;;;;;5050395;28;20036;-71
2022/06/13 04:35:22;;;;;;;17.93;7.43;;;;;;;;;;5048341;28;20032;-71
2022/06/13 04:37:49;;;;;;;15.13;5.70;;;;;;;;;;5050507;28;20033;-71
2022/06/13 04:40:17;;;;;;;12.13;5.93;;;;;;;;;;5053399;28;20032;-71
2022/06/13 04:42:43;;;;;;;15.10;6.17;;;;;;;;;;5052528;28;20659;-71
2022/06/13 04:45:20;;;;;;;12.77;5.37;;;;;;;;;;5052425;28;20138;-71
2022/06/13 04:47:46;;;;;;;16.00;5.63;;;;;;;;;;5052780;28;20040;-71
2022/06/13 04:50:15;;;;;;;13.50;6.07;;;;;;;;;;5052423;28;20020;-71
2022/06/13 04:52:41;;;;;;;17.13;6.07;;;;;;;;;;5053365;28;20538;-71
2022/06/13 04:55:12;;;;;;;15.33;5.80;;;;;;;;;;5051463;28;20037;-71
2022/06/13 04:57:37;;;;;;;15.03;5.37;;;;;;;;;;5053744;28;20473;-71
2022/06/13 05:00:04;;;;;;;18.57;5.00;;;;;;;;;;5052327;28;20039;-71
2022/06/13 05:02:49;;;;;;;16.37;4.87;;;;;;;;;;5052878;28;20032;-71
2022/06/13 05:05:23;;;;;;;13.97;4.73;;;;;;;;;;5052283;28;20790;-71
2022/06/13 05:07:48;;;;;;;12.85;4.70;;;;;;;;;;5050688;28;20021;-71
2022/06/13 05:10:16;;;;;;;13.25;4.45;;;;;;;;;;5053178;28;20032;-72
2022/06/13 05:12:45;;;;;;;15.15;4.72;;;;;;;;;;5052781;28;20070;-72
2022/06/13 05:15:13;;;;;;;14.07;5.13;;;;;;;;;;5043678;28;20051;-72
2022/06/13 05:17:41;;;;;;;11.95;4.50;;;;;;;;;;5050512;28;20087;-72
2022/06/13 05:20:33;;;;;;;11.43;3.80;;;;;;;;;;5052937;28;20060;-72
2022/06/13 05:23:01;;;;;;;12.68;4.40;;;;;;;;;;5039055;28;20079;-72
2022/06/13 05:25:31;;;;;;;16.08;4.72;;;;;;;;;;5044648;28;20057;-72
2022/06/13 05:27:57;;;;;;;12.03;4.93;;;;;;;;;;5053801;28;20023;-71
2022/06/13 05:30:22;;;;;;;15.82;5.13;;;;;;;;;;5063186;28;20952;-72
2022/06/13 05:32:48;;;;;;;14.50;5.25;;;;;;;;;;5052726;28;20025;-73
2022/06/13 05:35:13;;;;;;;15.07;5.20;;;;;;;;;;5042835;28;20025;-71
2022/06/13 05:37:39;;;;;;;16.77;5.25;;;;;;;;;;5042336;28;20500;-72
2022/06/13 05:40:04;;;;;;;11.60;5.03;;;;;;;;;;5047951;28;20037;-71
2022/06/13 05:42:30;;;;;;;19.17;5.65;;;;;;;;;;5047898;28;20060;-73
2022/06/13 05:44:55;;;;;;;9.40;4.60;;;;;;;;;;5052826;28;20017;-73
2022/06/13 05:47:20;;;;;;;14.35;5.80;;;;;;;;;;5051011;28;20048;-72
2022/06/13 05:49:46;;;;;;;13.35;5.47;;;;;;;;;;5049355;28;20351;-72
2022/06/13 05:52:11;;;;;;;14.18;5.10;;;;;;;;;;5041073;28;20082;-72
2022/06/13 05:54:37;;;;;;;14.98;5.40;;;;;;;;;;5046073;28;20084;-73
2022/06/13 05:57:02;;;;;;;16.08;5.40;;;;;;;;;;5052928;28;20025;-73
2022/06/13 05:59:28;;;;;;;12.95;4.57;;;;;;;;;;5053182;28;20518;-71
2022/06/13 06:01:53;;;;;;;14.68;5.45;;;;;;;;;;5052998;28;20385;-71
2022/06/13 06:04:18;;;;;;;14.02;4.57;;;;;;;;;;5052768;28;20469;-71
2022/06/13 06:06:43;;;;;;;14.68;4.60;;;;;;;;;;5052923;28;20373;-71
2022/06/13 06:09:10;;;;;;;12.65;4.45;;;;;;;;;;5052509;28;20037;-71
2022/06/13 06:11:36;;;;;;;14.57;4.50;;;;;;;;;;5052543;28;20478;-71
2022/06/13 06:14:01;;;;;;;17.38;4.93;;;;;;;;;;5052595;28;20032;-71
2022/06/13 06:16:27;;;;;;;13.38;4.28;;;;;;;;;;5052565;28;20043;-71
2022/06/13 06:18:52;;;;;;;14.38;4.43;;;;;;;;;;5052652;28;20029;-71
2022/06/13 06:21:18;;;;;;;16.10;4.05;;;;;;;;;;5052588;28;20192;-71
2022/06/13 06:23:43;;;;;;;11.82;3.75;;;;;;;;;;5052141;28;20021;-71
2022/06/13 06:26:10;;;;;;;11.27;3.55;;;;;;;;;;5052469;28;20036;-71
2022/06/13 06:28:35;;;;;;;13.20;4.03;;;;;;;;;;5052347;28;20104;-72
2022/06/13 06:31:01;;;;;;;9.95;3.42;;;;;;;;;;5052114;28;20104;-72
2022/06/13 06:33:27;;;;;;;13.02;3.78;;;;;;;;;;5052474;28;20415;-71
2022/06/13 06:35:53;;;;;;;13.73;3.83;;;;;;;;;;5052493;28;20139;-72
2022/06/13 06:38:19;;;;;;;12.30;3.35;;;;;;;;;;5051600;28;20033;-71
2022/06/13 06:40:44;;;;;;;14.23;4.35;;;;;;;;;;5052405;28;20021;-71
2022/06/13 06:43:10;;;;;;;12.57;3.40;;;;;;;;;;5052230;28;20490;-71
2022/06/13 06:45:35;;;;;;;15.48;3.90;;;;;;;;;;5052007;28;20025;-71
2022/06/13 06:48:01;;;;;;;11.45;3.55;;;;;;;;;;5051881;28;20083;-71
2022/06/13 06:50:27;;;;;;;10.45;4.15;;;;;;;;;;5051436;28;20388;-71
2022/06/13 06:52:52;;;;;;;11.95;3.53;;;;;;;;;;5052175;28;20471;-71
2022/06/13 07:00:48;;;;;;;16.30;3.65;;;;;;;;;;5032527;28;20121;-72
2022/06/13 07:03:13;;;;;;;11.27;3.67;;;;;;;;;;5031738;28;20057;-72
2022/06/13 07:05:38;;;;;;;9.70;3.10;;;;;;;;;;5032010;28;20087;-72
2022/06/13 07:08:04;;;;;;;13.35;3.20;;;;;;;;;;5031890;28;20041;-72
2022/06/13 07:10:30;;;;;;;11.82;3.42;;;;;;;;;;5050753;28;20428;-72
2022/06/13 07:12:55;;;;;;;12.88;3.17;;;;;;;;;;5051864;28;20025;-72
2022/06/13 07:15:20;;;;;;;6.68;2.40;;;;;;;;;;5051818;28;20412;-71
2022/06/13 07:17:46;;;;;;;9.80;2.78;;;;;;;;;;5051651;28;20090;-72
2022/06/13 07:20:11;;;;;;;8.80;2.70;;;;;;;;;;5051693;28;20025;-72
2022/06/13 07:22:37;;;;;;;6.97;2.38;;;;;;;;;;5051579;28;20025;-72
2022/06/13 07:25:02;;;;;;;6.55;2.25;;;;;;;;;;5051008;28;20158;-72
2022/06/13 07:27:27;;;;;;;9.23;2.70;;;;;;;;;;5051665;28;20428;-71
2022/06/13 07:29:53;;;;;;;8.27;2.45;;;;;;;;;;5050472;28;20021;-72
2022/06/13 07:32:23;;;;;;;6.70;2.33;;;;;;;;;;5040270;28;20017;-72
2022/06/13 07:34:50;;;;;;;6.60;2.40;;;;;;;;;;5050355;28;20061;-72
2022/06/13 07:38:16;;;;;;;5.28;1.90;;;;;;;;;;5050605;28;20043;-72
2022/06/13 07:40:03;;;;;;;7.35;2.50;;;;;;;;;;5049652;28;20024;-72
2022/06/13 07:42:32;;;;;;;7.15;2.10;;;;;;;;;;5049910;28;20518;-72
2022/06/13 07:44:57;;;;;;;7.57;2.75;;;;;;;;;;5050743;28;20025;-72
2022/06/13 07:47:22;;;;;;;5.72;1.98;;;;;;;;;;5051069;28;20044;-72
2022/06/13 07:49:47;;;;;;;6.57;1.70;;;;;;;;;;5051094;28;20108;-72
2022/06/13 07:52:13;;;;;;;7.28;1.65;;;;;;;;;;5051105;28;20020;-72
2022/06/13 07:54:38;;;;;;;5.97;1.73;;;;;;;;;;5050975;28;20029;-72
2022/06/13 07:57:03;;;;;;;5.25;2.00;;;;;;;;;;5061876;28;20017;-72
2022/06/13 07:59:30;;;;;;;8.02;1.95;;;;;;;;;;5070882;28;20034;-72
2022/06/13 08:01:56;;;;;;;6.50;1.70;;;;;;;;;;5071136;28;20499;-71
2022/06/13 08:04:22;;;;;;;7.45;2.20;;;;;;;;;;5052421;28;20029;-71
2022/06/13 08:06:47;;;;;;;4.72;1.63;;;;;;;;;;5051012;28;20024;-71
2022/06/13 08:09:12;;;;;;;4.13;1.58;;;;;;;;;;5053779;28;20025;-71
2022/06/13 08:11:43;;;;;;;6.68;1.77;;;;;;;;;;5055399;28;20021;-71
2022/06/13 08:14:08;;;;;;;8.85;1.85;;;;;;;;;;5054734;28;20104;-71
2022/06/13 08:16:34;;;;;;;10.80;2.17;;;;;;;;;;5054857;28;20112;-71
2022/06/13 08:19:00;;;;;;;9.15;2.35;;;;;;;;;;5055041;28;20091;-71
2022/06/13 08:21:25;;;;;;;7.97;2.13;;;;;;;;;;5054686;28;20025;-71
2022/06/13 08:23:50;;;;;;;10.35;2.50;;;;;;;;;;5054580;28;20036;-71
2022/06/13 08:26:15;;;;;;;8.63;2.30;;;;;;;;;;5054323;28;20052;-71
2022/06/13 08:28:41;;;;;;;6.75;2.13;;;;;;;;;;5054653;28;20017;-71
2022/06/13 08:31:08;;;;;;;9.55;2.65;;;;;;;;;;5054698;28;20079;-71
2022/06/13 08:33:33;;;;;;;6.10;2.15;;;;;;;;;;5054673;28;20470;-71
2022/06/13 08:35:58;;;;;;;8.00;2.40;;;;;;;;;;5054872;28;20032;-71
2022/06/13 08:38:24;;;;;;;7.80;1.83;;;;;;;;;;5054377;28;20017;-71
2022/06/13 08:41:04;;;;;;;7.65;1.92;;;;;;;;;;5054171;28;20091;-71
2022/06/13 08:43:38;;;;;;;6.65;1.60;;;;;;;;;;5054791;28;20104;-72
2022/06/13 08:46:22;;;;;;;5.80;1.60;;;;;;;;;;5054550;28;20464;-72
2022/06/13 08:48:51;;;;;;;6.65;1.67;;;;;;;;;;5054167;28;20017;-72
2022/06/13 08:51:20;;;;;;;3.70;1.30;;;;;;;;;;5054327;28;20083;-72
2022/06/13 08:53:51;;;;;;;6.50;1.40;;;;;;;;;;5054715;28;20037;-72
2022/06/13 08:56:16;;;;;;;4.97;1.20;;;;;;;;;;5054063;28;20017;-72
2022/06/13 08:58:47;;;;;;;6.25;1.20;;;;;;;;;;5054166;28;20027;-71
2022/06/13 09:01:34;;;;;;;5.80;1.20;;;;;;;;;;5054142;28;20103;-71
2022/06/13 09:04:09;;;;;;;3.97;0.90;;;;;;;;;;5054076;28;20115;-72
2022/06/13 09:06:37;;;;;;;2.72;0.85;;;;;;;;;;5053924;28;20064;-72
2022/06/13 09:09:17;;;;;;;6.57;1.27;;;;;;;;;;5054235;28;20032;-72
2022/06/13 09:11:54;;;;;;;3.40;0.98;;;;;;;;;;5053658;28;20099;-71
2022/06/13 09:14:30;;;;;;;3.72;0.85;;;;;;;;;;5054076;28;20040;-71
2022/06/13 09:17:02;;;;;;;5.25;1.20;;;;;;;;;;5054245;28;20090;-71
2022/06/13 09:19:33;;;;;;;3.25;1.00;;;;;;;;;;5053641;28;20421;-72
2022/06/13 09:22:02;;;;;;;2.30;0.80;;;;;;;;;;5053609;28;20024;-72
2022/06/13 09:24:46;;;;;;;3.05;0.70;;;;;;;;;;5053587;28;20377;-72
2022/06/13 09:27:23;;;;;;;3.35;0.70;;;;;;;;;;5053206;28;20473;-72
2022/06/13 09:30:01;;;;;;;3.53;0.70;;;;;;;;;;5045125;28;20017;-72
2022/06/13 09:32:35;;;;;;;2.25;0.65;;;;;;;;;;5033621;28;20021;-72
2022/06/13 09:35:09;;;;;;;2.72;0.68;;;;;;;;;;5040550;28;20029;-71
2022/06/13 09:37:35;;;;;;;2.03;0.50;;;;;;;;;;5053503;28;20021;-71
2022/06/13 09:40:00;;;;;;;5.45;0.80;;;;;;;;;;5053599;28;20032;-71
2022/06/13 09:42:25;;;;;;;2.45;0.60;;;;;;;;;;5052080;28;20431;-71
2022/06/13 09:45:04;;;;;;;3.33;0.50;;;;;;;;;;5053037;28;20064;-71
2022/06/13 09:47:48;;;;;;;2.10;0.60;;;;;;;;;;5053165;28;20458;-71
2022/06/13 09:50:23;;;;;;;4.13;0.73;;;;;;;;;;5052843;28;20036;-72
2022/06/13 09:52:55;;;;;;;3.83;0.88;;;;;;;;;;5053058;28;20052;-72
2022/06/13 09:55:23;;;;;;;;;;;;;;;;;;5053873;28;20032;-72
2022/06/13 09:58:07;;;;;;;2.80;0.75;;;;;;;;;;5052810;28;19927;-72
2022/06/13 10:00:53;;;;;;;7.03;0.70;;;;;;;;;;5053378;28;20025;-72
2022/06/13 10:03:29;;;;;;;6.55;0.70;;;;;;;;;;5038682;28;20070;-72
2022/06/13 10:06:00;;;;;;;4.70;0.93;;;;;;;;;;5053069;28;20358;-71
2022/06/13 10:08:25;;;;;;;;;;;;;;;;;;5053196;28;20021;-71
2022/06/13 10:11:01;;;;;;;1.50;0.60;;;;;;;;;;5052817;28;19911;-71
2022/06/13 10:13:26;;;;;;;2.25;0.60;;;;;;;;;;5052248;28;20255;-71
2022/06/13 10:16:04;;;;;;;2.65;0.60;;;;;;;;;;5052613;28;20025;-71
2022/06/13 10:18:29;;;;;;;4.13;1.02;;;;;;;;;;5052295;28;20025;-71
2022/06/13 10:21:07;;;;;;;4.90;0.82;;;;;;;;;;5052367;28;20033;-71
2022/06/13 10:23:38;;;;;;;3.53;0.70;;;;;;;;;;5052732;28;20444;-71
2022/06/13 10:26:15;;;;;;;3.60;0.82;;;;;;;;;;5052425;28;20503;-71
2022/06/13 10:29:01;;;;;;;3.10;0.75;;;;;;;;;;5052031;28;20044;-71
2022/06/13 10:31:26;;;;;;;3.05;0.80;;;;;;;;;;5051303;28;20036;-71
2022/06/13 10:33:58;;;;;;;4.20;0.80;;;;;;;;;;5052459;28;20025;-71
2022/06/13 10:36:47;;;;;;;3.47;0.88;;;;;;;;;;5052304;28;20009;-71
2022/06/13 10:39:19;;;;;;;5.43;0.80;;;;;;;;;;5052441;28;20358;-72
2022/06/13 10:41:46;;;;;;;3.92;1.20;;;;;;;;;;5051771;28;20023;-72
2022/06/13 10:44:12;;;;;;;3.38;0.68;;;;;;;;;;5032268;28;20029;-72
2022/06/13 10:46:45;;;;;;;5.05;0.80;;;;;;;;;;5032043;28;20032;-72
2022/06/13 10:49:13;;;;;;;3.78;0.80;;;;;;;;;;5039525;28;20031;-72
2022/06/13 10:51:40;;;;;;;3.33;0.70;;;;;;;;;;5051831;28;20075;-72
2022/06/13 10:54:20;;;;;;;5.00;0.93;;;;;;;;;;5051925;28;20013;-72
2022/06/13 10:56:54;;;;;;;3.38;0.80;;;;;;;;;;5060733;28;20021;-72
2022/06/13 10:59:27;;;;;;;4.47;0.88;;;;;;;;;;5051122;28;20025;-72
2022/06/13 11:01:58;;;;;;;4.57;0.77;;;;;;;;;;5051951;28;20477;-71
2022/06/13 11:04:24;;;;;;;3.17;0.80;;;;;;;;;;5051525;28;20048;-71
2022/06/13 11:06:54;;;;;;;3.67;0.70;;;;;;;;;;5051502;28;20090;-72
2022/06/13 11:09:43;;;;;;;5.83;0.90;;;;;;;;;;5051711;28;20109;-72
2022/06/13 11:12:28;;;;;;;3.38;0.90;;;;;;;;;;5051229;28;20044;-72
2022/06/13 11:23:28;;;;;;;3.85;0.80;;;;;;;;;;5051777;28;20578;-72
2022/06/13 11:25:55;;;;;;;3.00;0.70;;;;;;;;;;5051304;28;20141;-72
2022/06/13 11:28:24;;;;;;;4.32;0.90;;;;;;;;;;5051190;28;20125;-72
2022/06/13 11:31:03;;;;;;;4.55;0.98;;;;;;;;;;5051545;28;20088;-72
2022/06/13 11:33:33;;;;;;;5.85;1.15;;;;;;;;;;5051155;28;20451;-72
2022/06/13 11:36:34;;;;;;;4.53;0.80;;;;;;;;;;5051589;28;20567;-72
2022/06/13 11:38:59;;;;;;;;;;;;;;;;;;4969863;28;20031;-72
2022/06/13 11:41:33;;;;;;;4.57;0.73;;;;;;;;;;4969736;28;19960;-72
2022/06/13 11:44:00;;;;;;;5.05;0.98;;;;;;;;;;4968637;28;20042;-73
2022/06/13 11:46:30;;;;;;;3.20;0.85;;;;;;;;;;4953689;28;20526;-71
2022/06/13 11:48:56;;;;;;;5.03;0.70;;;;;;;;;;4969581;28;20480;-71
2022/06/13 11:51:22;;;;;;;6.32;0.70;;;;;;;;;;4969484;28;20038;-71
2022/06/13 11:53:48;;;;;;;5.05;0.90;;;;;;;;;;4969626;28;20078;-72
2022/06/13 11:56:24;;;;;;;5.68;0.93;;;;;;;;;;4973793;28;20037;-71
2022/06/13 11:58:50;;;;;;;2.75;0.68;;;;;;;;;;4980283;28;20462;-72
2022/06/13 12:01:36;;;;;;;4.00;0.80;;;;;;;;;;4969557;28;20035;-71
2022/06/13 12:04:01;;;;;;;3.95;0.82;;;;;;;;;;4969676;28;20140;-72
2022/06/13 12:06:27;;;;;;;4.05;0.93;;;;;;;;;;4969770;28;20069;-72
2022/06/13 12:09:10;;;;;;;6.13;0.88;;;;;;;;;;4969891;28;20042;-72
2022/06/13 12:11:41;;;;;;;2.28;0.63;;;;;;;;;;4969362;28;20031;-72
2022/06/13 12:14:08;;;;;;;5.47;0.82;;;;;;;;;;5048564;28;20167;-72
2022/06/13 12:16:52;;;;;;;2.17;0.63;;;;;;;;;;5050863;28;20033;-72
2022/06/13 12:19:21;;;;;;;4.88;0.80;;;;;;;;;;5050732;28;20021;-72
2022/06/13 12:21:49;;;;;;;3.60;0.75;;;;;;;;;;5050930;28;20594;-72
2022/06/13 12:24:24;;;;;;;3.65;0.77;;;;;;;;;;5050630;28;20638;-72
2022/06/13 12:26:55;;;;;;;6.22;0.90;;;;;;;;;;5050831;28;20021;-72
2022/06/13 12:29:23;;;;;;;3.45;0.90;;;;;;;;;;5050276;28;20029;-72
2022/06/13 12:31:51;;;;;;;5.20;1.00;;;;;;;;;;5050634;28;20044;-71
2022/06/13 12:34:35;;;;;;;6.82;1.00;;;;;;;;;;5050530;28;20020;-71
2022/06/13 12:37:09;;;;;;;5.38;0.93;;;;;;;;;;5050475;28;20013;-71
2022/06/13 12:39:40;;;;;;;4.15;0.95;;;;;;;;;;5050844;28;20154;-71
2022/06/13 12:42:23;;;;;;;4.57;0.90;;;;;;;;;;5050425;28;20029;-71
2022/06/13 12:44:49;;;;;;;4.78;1.02;;;;;;;;;;5049923;28;20085;-71
2022/06/13 12:47:29;;;;;;;4.55;0.80;;;;;;;;;;5032456;28;20104;-72
2022/06/13 12:50:28;;;;;;;4.82;0.90;;;;;;;;;;5050140;28;20031;-71
2022/06/13 12:53:08;;;;;;;5.45;1.10;;;;;;;;;;5006673;28;20533;-72
2022/06/13 12:55:53;;;;;;;2.72;0.70;;;;;;;;;;5053333;28;20096;-71
2022/06/13 12:58:18;;;;;;;5.35;0.90;;;;;;;;;;5034181;28;20473;-71
2022/06/13 13:00:43;;;;;;;4.40;0.90;;;;;;;;;;5050731;28;20031;-71
2022/06/13 13:03:17;;;;;;;6.00;1.10;;;;;;;;;;5054021;28;20064;-71
2022/06/13 13:06:01;;;;;;;3.65;0.70;;;;;;;;;;5053722;28;20029;-71
2022/06/13 13:08:35;;;;;;;6.00;1.40;;;;;;;;;;5053928;28;20055;-71
2022/06/13 13:11:14;;;;;;;4.40;0.82;;;;;;;;;;5053941;28;20477;-71
2022/06/13 13:13:39;;;;;;;3.60;0.90;;;;;;;;;;5053765;28;20028;-71
2022/06/13 13:16:20;;;;;;;3.75;0.80;;;;;;;;;;5053461;28;20025;-73
2022/06/13 13:18:51;;;;;;;2.80;0.60;;;;;;;;;;5053705;28;20032;-71
2022/06/13 13:21:21;;;;;;;4.53;1.20;;;;;;;;;;5053747;28;20023;-71
2022/06/13 13:24:05;;;;;;;3.58;1.02;;;;;;;;;;5054091;28;20021;-71
2022/06/13 13:26:30;;;;;;;6.03;1.30;;;;;;;;;;5033630;28;20026;-71
2022/06/13 13:29:11;;;;;;;6.55;1.20;;;;;;;;;;5033581;28;20021;-71
2022/06/13 13:31:39;;;;;;;8.77;1.93;;;;;;;;;;5053129;28;20059;-71
2022/06/13 13:34:14;;;;;;;6.68;1.20;;;;;;;;;;5053352;28;20031;-71
2022/06/13 13:36:54;;;;;;;5.47;1.10;;;;;;;;;;5053074;28;20070;-71
2022/06/13 13:39:23;;;;;;;8.65;1.08;;;;;;;;;;5053497;28;20365;-71
2022/06/13 13:42:00;;;;;;;7.25;1.20;;;;;;;;;;5053624;28;20035;-71
2022/06/13 13:44:28;;;;;;;6.05;1.25;;;;;;;;;;5053115;28;20032;-71
2022/06/13 13:46:54;;;;;;;4.03;1.10;;;;;;;;;;5048439;28;20052;-71
2022/06/13 13:49:34;;;;;;;8.23;1.00;;;;;;;;;;5052450;28;20047;-71
2022/06/13 13:52:07;;;;;;;9.75;1.90;;;;;;;;;;5052660;28;20365;-71
2022/06/13 13:54:38;;;;;;;6.13;1.20;;;;;;;;;;5053203;28;20013;-72
2022/06/13 13:57:03;;;;;;;4.53;1.00;;;;;;;;;;5036431;28;20035;-71
2022/06/13 13:59:30;;;;;;;5.18;1.00;;;;;;;;;;5052949;28;20033;-71
2022/06/13 14:01:58;;;;;;;6.43;1.23;;;;;;;;;;5052181;28;20029;-71
2022/06/13 14:04:29;;;;;;;4.50;1.10;;;;;;;;;;5052811;28;20021;-71
2022/06/13 14:07:09;;;;;;;4.65;1.15;;;;;;;;;;5052945;28;20381;-71
2022/06/13 14:09:35;;;;;;;7.05;1.23;;;;;;;;;;5052874;28;20021;-71
2022/06/13 14:12:03;;;;;;;10.50;1.50;;;;;;;;;;5052468;28;20021;-71
2022/06/13 14:14:37;;;;;;;4.68;1.15;;;;;;;;;;5053056;28;20430;-71
2022/06/13 14:17:05;;;;;;;8.02;1.67;;;;;;;;;;5052543;28;20139;-71
2022/06/13 14:19:33;;;;;;;5.38;1.10;;;;;;;;;;5052544;28;20100;-71
2022/06/13 14:22:00;;;;;;;6.70;0.93;;;;;;;;;;5052660;28;20051;-71
2022/06/13 14:24:27;;;;;;;5.75;1.10;;;;;;;;;;5052614;28;20021;-71
2022/06/13 14:26:54;;;;;;;8.65;1.35;;;;;;;;;;5052700;28;20013;-71
2022/06/13 14:29:25;;;;;;;5.30;1.10;;;;;;;;;;5052478;28;20052;-71
2022/06/13 14:31:53;;;;;;;4.43;1.02;;;;;;;;;;5052004;28;20040;-71
2022/06/13 14:37:22;;;;;;;5.32;1.10;;;;;;;;;;5052601;28;20082;-71
2022/06/13 14:39:54;;;;;;;7.45;1.25;;;;;;;;;;5052168;28;20214;-71
2022/06/13 14:42:22;;;;;;;;;;;;;;;;;;5052903;28;20349;-72
2022/06/13 14:45:09;;;;;;;6.05;1.10;;;;;;;;;;5052279;28;19923;-71
2022/06/13 14:47:40;;;;;;;7.18;1.13;;;;;;;;;;5051984;28;20020;-71
2022/06/13 14:50:06;;;;;;;7.53;1.08;;;;;;;;;;5051781;28;20025;-71
2022/06/13 14:52:31;;;;;;;7.07;1.20;;;;;;;;;;5052039;28;20025;-71
2022/06/13 14:54:57;;;;;;;6.25;1.00;;;;;;;;;;5052161;28;20017;-71
2022/06/13 14:57:28;;;;;;;7.80;1.35;;;;;;;;;;5051693;28;20115;-71
2022/06/13 15:00:10;;;;;;;8.77;1.13;;;;;;;;;;5052161;28;20377;-71
2022/06/13 15:02:54;;;;;;;3.75;1.00;;;;;;;;;;5051775;28;20481;-74
2022/06/13 15:05:21;;;;;;;6.20;0.90;;;;;;;;;;5014084;28;20105;-73
2022/06/13 15:08:07;;;;;;;5.00;0.88;;;;;;;;;;5014028;28;20071;-73
2022/06/13 15:10:47;;;;;;;5.45;0.93;;;;;;;;;;5032126;28;20033;-71
2022/06/13 15:13:14;;;;;;;5.65;1.00;;;;;;;;;;5035226;28;20031;-70
2022/06/13 15:15:40;;;;;;;4.53;1.00;;;;;;;;;;5052439;28;20341;-71